sensor_id;sensor_type;location;lat;lon;timestamp;temperature;humidity
47606;DHT22;55448;51.330;4.946;2022-08-19T00:00:28;19.40;99.90
47606;DHT22;55448;51.330;4.946;2022-08-19T00:02:54;19.30;99.90
47606;DHT22;55448;51.330;4.946;2022-08-19T00:05:21;19.20;99.90
47606;DHT22;55448;51.330;4.946;2022-08-19T00:07:47;19.30;99.90
47606;DHT22;55448;51.330;4.946;2022-08-19T00:10:15;19.30;99.90
47606;DHT22;55448;51.330;4.946;2022-08-19T00:12:42;19.30;99.90
47606;DHT22;55448;51.330;4.946;2022-08-19T00:15:11;19.20;99.90
47606;DHT22;55448;51.330;4.946;2022-08-19T00:17:43;19.20;99.90
47606;DHT22;55448;51.330;4.946;2022-08-19T00:20:09;19.10;99.90
47606;DHT22;55448;51.330;4.946;2022-08-19T00:22:36;18.90;99.90
47606;DHT22;55448;51.330;4.946;2022-08-19T00:25:03;18.70;99.90
47606;DHT22;55448;51.330;4.946;2022-08-19T00:27:29;18.70;99.90
47606;DHT22;55448;51.330;4.946;2022-08-19T00:29:55;18.80;99.90
47606;DHT22;55448;51.330;4.946;2022-08-19T00:32:21;18.70;99.90
47606;DHT22;55448;51.330;4.946;2022-08-19T00:34:46;18.60;99.90
47606;DHT22;55448;51.330;4.946;2022-08-19T00:37:12;18.40;99.90
47606;DHT22;55448;51.330;4.946;2022-08-19T00:39:38;18.40;99.90
47606;DHT22;55448;51.330;4.946;2022-08-19T00:42:04;18.30;99.90
47606;DHT22;55448;51.330;4.946;2022-08-19T00:44:31;18.50;99.90
47606;DHT22;55448;51.330;4.946;2022-08-19T00:46:58;18.60;99.90
47606;DHT22;55448;51.330;4.946;2022-08-19T00:49:31;18.90;99.90
47606;DHT22;55448;51.330;4.946;2022-08-19T00:52:45;19.00;99.90
47606;DHT22;55448;51.330;4.946;2022-08-19T00:54:52;19.20;99.90
47606;DHT22;55448;51.330;4.946;2022-08-19T00:57:22;19.10;99.90
47606;DHT22;55448;51.330;4.946;2022-08-19T00:59:51;19.30;99.90
47606;DHT22;55448;51.330;4.946;2022-08-19T01:02:18;19.30;99.90
47606;DHT22;55448;51.330;4.946;2022-08-19T01:04:43;19.30;99.90
47606;DHT22;55448;51.330;4.946;2022-08-19T01:07:09;19.20;99.90
47606;DHT22;55448;51.330;4.946;2022-08-19T01:09:35;19.00;99.90
47606;DHT22;55448;51.330;4.946;2022-08-19T01:12:02;18.90;99.90
47606;DHT22;55448;51.330;4.946;2022-08-19T01:14:29;18.90;99.90
47606;DHT22;55448;51.330;4.946;2022-08-19T01:16:55;18.90;99.90
47606;DHT22;55448;51.330;4.946;2022-08-19T01:19:33;19.00;99.90
47606;DHT22;55448;51.330;4.946;2022-08-19T01:22:12;18.80;99.90
47606;DHT22;55448;51.330;4.946;2022-08-19T01:24:40;18.70;99.90
47606;DHT22;55448;51.330;4.946;2022-08-19T01:27:06;18.70;99.90
47606;DHT22;55448;51.330;4.946;2022-08-19T01:29:33;18.60;99.90
47606;DHT22;55448;51.330;4.946;2022-08-19T01:32:00;18.70;99.90
47606;DHT22;55448;51.330;4.946;2022-08-19T01:34:26;18.70;99.90
47606;DHT22;55448;51.330;4.946;2022-08-19T01:36:52;18.70;99.90
47606;DHT22;55448;51.330;4.946;2022-08-19T01:39:21;18.70;99.90
47606;DHT22;55448;51.330;4.946;2022-08-19T01:41:48;18.80;99.90
47606;DHT22;55448;51.330;4.946;2022-08-19T01:44:14;18.70;99.90
47606;DHT22;55448;51.330;4.946;2022-08-19T01:46:42;18.80;99.90
47606;DHT22;55448;51.330;4.946;2022-08-19T01:49:08;18.80;99.90
47606;DHT22;55448;51.330;4.946;2022-08-19T01:51:34;18.80;99.90
47606;DHT22;55448;51.330;4.946;2022-08-19T01:54:00;18.70;99.90
47606;DHT22;55448;51.330;4.946;2022-08-19T01:56:26;18.60;99.90
47606;DHT22;55448;51.330;4.946;2022-08-19T01:59:02;18.40;99.90
47606;DHT22;55448;51.330;4.946;2022-08-19T02:01:29;18.30;99.90
47606;DHT22;55448;51.330;4.946;2022-08-19T02:03:58;18.30;99.90
47606;DHT22;55448;51.330;4.946;2022-08-19T02:06:24;18.40;99.90
47606;DHT22;55448;51.330;4.946;2022-08-19T02:08:49;18.50;99.90
47606;DHT22;55448;51.330;4.946;2022-08-19T02:11:27;18.50;99.90
47606;DHT22;55448;51.330;4.946;2022-08-19T02:13:55;18.50;99.90
47606;DHT22;55448;51.330;4.946;2022-08-19T02:16:21;18.40;99.90
47606;DHT22;55448;51.330;4.946;2022-08-19T02:18:47;18.30;99.90
47606;DHT22;55448;51.330;4.946;2022-08-19T02:21:17;18.30;99.90
47606;DHT22;55448;51.330;4.946;2022-08-19T02:23:44;18.30;99.90
47606;DHT22;55448;51.330;4.946;2022-08-19T02:26:10;18.30;99.90
47606;DHT22;55448;51.330;4.946;2022-08-19T02:28:37;18.30;99.90
47606;DHT22;55448;51.330;4.946;2022-08-19T02:31:08;18.30;99.90
47606;DHT22;55448;51.330;4.946;2022-08-19T02:33:34;18.10;99.90
47606;DHT22;55448;51.330;4.946;2022-08-19T02:36:04;18.30;99.90
47606;DHT22;55448;51.330;4.946;2022-08-19T02:38:30;18.30;99.90
47606;DHT22;55448;51.330;4.946;2022-08-19T02:41:04;18.20;99.90
47606;DHT22;55448;51.330;4.946;2022-08-19T02:43:32;18.10;99.90
47606;DHT22;55448;51.330;4.946;2022-08-19T02:46:02;18.00;99.90
47606;DHT22;55448;51.330;4.946;2022-08-19T02:48:28;17.90;99.90
47606;DHT22;55448;51.330;4.946;2022-08-19T02:50:53;17.90;99.90
47606;DHT22;55448;51.330;4.946;2022-08-19T02:53:26;17.90;99.90
47606;DHT22;55448;51.330;4.946;2022-08-19T02:55:52;18.00;99.90
47606;DHT22;55448;51.330;4.946;2022-08-19T02:58:19;18.00;99.90
47606;DHT22;55448;51.330;4.946;2022-08-19T03:00:48;17.90;99.90
47606;DHT22;55448;51.330;4.946;2022-08-19T03:03:15;18.00;99.90
47606;DHT22;55448;51.330;4.946;2022-08-19T03:05:41;18.00;99.90
47606;DHT22;55448;51.330;4.946;2022-08-19T03:08:08;17.90;99.90
47606;DHT22;55448;51.330;4.946;2022-08-19T03:10:47;17.80;99.90
47606;DHT22;55448;51.330;4.946;2022-08-19T03:13:15;17.70;99.90
47606;DHT22;55448;51.330;4.946;2022-08-19T03:15:46;17.70;99.90
47606;DHT22;55448;51.330;4.946;2022-08-19T03:18:12;17.60;99.90
47606;DHT22;55448;51.330;4.946;2022-08-19T03:20:44;17.60;99.90
47606;DHT22;55448;51.330;4.946;2022-08-19T03:23:11;17.60;99.90
47606;DHT22;55448;51.330;4.946;2022-08-19T03:25:42;17.70;99.90
47606;DHT22;55448;51.330;4.946;2022-08-19T03:28:13;17.70;99.90
47606;DHT22;55448;51.330;4.946;2022-08-19T03:30:40;17.70;99.90
47606;DHT22;55448;51.330;4.946;2022-08-19T03:33:10;17.60;99.90
47606;DHT22;55448;51.330;4.946;2022-08-19T03:35:37;17.60;99.90
47606;DHT22;55448;51.330;4.946;2022-08-19T03:38:05;17.60;99.90
47606;DHT22;55448;51.330;4.946;2022-08-19T03:40:32;17.60;99.90
47606;DHT22;55448;51.330;4.946;2022-08-19T03:42:57;17.50;99.90
47606;DHT22;55448;51.330;4.946;2022-08-19T03:45:24;17.60;99.90
47606;DHT22;55448;51.330;4.946;2022-08-19T03:47:49;17.60;99.90
47606;DHT22;55448;51.330;4.946;2022-08-19T03:50:15;17.70;99.90
47606;DHT22;55448;51.330;4.946;2022-08-19T03:52:41;17.70;99.90
47606;DHT22;55448;51.330;4.946;2022-08-19T03:55:08;17.50;99.90
47606;DHT22;55448;51.330;4.946;2022-08-19T03:57:34;17.40;99.90
47606;DHT22;55448;51.330;4.946;2022-08-19T04:00:00;17.40;99.90
47606;DHT22;55448;51.330;4.946;2022-08-19T04:02:26;17.50;99.90
47606;DHT22;55448;51.330;4.946;2022-08-19T04:04:53;17.50;99.90
47606;DHT22;55448;51.330;4.946;2022-08-19T04:07:19;17.40;99.90
47606;DHT22;55448;51.330;4.946;2022-08-19T04:09:47;17.30;99.90
47606;DHT22;55448;51.330;4.946;2022-08-19T04:12:13;17.30;99.90
47606;DHT22;55448;51.330;4.946;2022-08-19T04:14:40;17.20;99.90
47606;DHT22;55448;51.330;4.946;2022-08-19T04:17:06;17.20;99.90
47606;DHT22;55448;51.330;4.946;2022-08-19T04:19:34;17.20;99.90
47606;DHT22;55448;51.330;4.946;2022-08-19T04:22:00;17.30;99.90
47606;DHT22;55448;51.330;4.946;2022-08-19T04:24:25;17.30;99.90
47606;DHT22;55448;51.330;4.946;2022-08-19T04:26:51;17.30;99.90
47606;DHT22;55448;51.330;4.946;2022-08-19T04:29:20;17.20;99.90
47606;DHT22;55448;51.330;4.946;2022-08-19T04:31:48;17.20;99.90
47606;DHT22;55448;51.330;4.946;2022-08-19T04:34:17;17.30;99.90
47606;DHT22;55448;51.330;4.946;2022-08-19T04:36:44;17.40;99.90
47606;DHT22;55448;51.330;4.946;2022-08-19T04:39:21;17.50;99.90
47606;DHT22;55448;51.330;4.946;2022-08-19T04:41:47;17.50;99.90
47606;DHT22;55448;51.330;4.946;2022-08-19T04:44:33;17.60;99.90
47606;DHT22;55448;51.330;4.946;2022-08-19T04:46:59;17.80;99.90
47606;DHT22;55448;51.330;4.946;2022-08-19T04:49:25;17.70;99.90
47606;DHT22;55448;51.330;4.946;2022-08-19T04:51:52;17.50;99.90
47606;DHT22;55448;51.330;4.946;2022-08-19T04:54:22;17.40;99.90
47606;DHT22;55448;51.330;4.946;2022-08-19T04:56:49;17.40;99.90
47606;DHT22;55448;51.330;4.946;2022-08-19T04:59:16;17.50;99.90
47606;DHT22;55448;51.330;4.946;2022-08-19T05:01:43;17.50;99.90
47606;DHT22;55448;51.330;4.946;2022-08-19T05:04:09;17.50;99.90
47606;DHT22;55448;51.330;4.946;2022-08-19T05:06:35;17.60;99.90
47606;DHT22;55448;51.330;4.946;2022-08-19T05:09:05;17.50;99.90
47606;DHT22;55448;51.330;4.946;2022-08-19T05:11:33;17.50;99.90
47606;DHT22;55448;51.330;4.946;2022-08-19T05:14:00;17.40;99.90
47606;DHT22;55448;51.330;4.946;2022-08-19T05:16:26;17.40;99.90
47606;DHT22;55448;51.330;4.946;2022-08-19T05:18:53;17.30;99.90
47606;DHT22;55448;51.330;4.946;2022-08-19T05:21:38;17.40;99.90
47606;DHT22;55448;51.330;4.946;2022-08-19T05:24:23;17.30;99.90
47606;DHT22;55448;51.330;4.946;2022-08-19T05:26:50;17.30;99.90
47606;DHT22;55448;51.330;4.946;2022-08-19T05:29:19;17.30;99.90
47606;DHT22;55448;51.330;4.946;2022-08-19T05:31:46;17.30;99.90
47606;DHT22;55448;51.330;4.946;2022-08-19T05:34:12;17.30;99.90
47606;DHT22;55448;51.330;4.946;2022-08-19T05:36:41;17.20;99.90
47606;DHT22;55448;51.330;4.946;2022-08-19T05:39:11;17.30;99.90
47606;DHT22;55448;51.330;4.946;2022-08-19T05:41:42;17.20;99.90
47606;DHT22;55448;51.330;4.946;2022-08-19T05:44:07;17.30;99.90
47606;DHT22;55448;51.330;4.946;2022-08-19T05:46:35;17.30;99.90
47606;DHT22;55448;51.330;4.946;2022-08-19T05:49:04;17.40;99.90
47606;DHT22;55448;51.330;4.946;2022-08-19T05:51:31;17.40;99.90
47606;DHT22;55448;51.330;4.946;2022-08-19T05:53:58;17.40;99.90
47606;DHT22;55448;51.330;4.946;2022-08-19T05:56:24;17.50;99.90
47606;DHT22;55448;51.330;4.946;2022-08-19T05:58:50;17.60;99.90
47606;DHT22;55448;51.330;4.946;2022-08-19T06:01:17;17.60;99.90
47606;DHT22;55448;51.330;4.946;2022-08-19T06:03:44;17.70;99.90
47606;DHT22;55448;51.330;4.946;2022-08-19T06:06:13;17.80;99.90
47606;DHT22;55448;51.330;4.946;2022-08-19T06:08:39;17.80;99.90
47606;DHT22;55448;51.330;4.946;2022-08-19T06:11:14;17.80;99.90
47606;DHT22;55448;51.330;4.946;2022-08-19T06:13:40;17.80;99.90
47606;DHT22;55448;51.330;4.946;2022-08-19T06:16:05;17.80;99.90
47606;DHT22;55448;51.330;4.946;2022-08-19T06:18:31;17.90;99.90
47606;DHT22;55448;51.330;4.946;2022-08-19T06:20:58;17.90;99.90
47606;DHT22;55448;51.330;4.946;2022-08-19T06:23:24;17.80;99.90
47606;DHT22;55448;51.330;4.946;2022-08-19T06:25:51;17.80;99.90
47606;DHT22;55448;51.330;4.946;2022-08-19T06:28:16;17.80;99.90
47606;DHT22;55448;51.330;4.946;2022-08-19T06:30:42;17.90;99.90
47606;DHT22;55448;51.330;4.946;2022-08-19T06:33:08;18.10;99.90
47606;DHT22;55448;51.330;4.946;2022-08-19T06:35:39;18.00;99.90
47606;DHT22;55448;51.330;4.946;2022-08-19T06:38:04;18.00;99.90
47606;DHT22;55448;51.330;4.946;2022-08-19T06:40:30;18.10;99.90
47606;DHT22;55448;51.330;4.946;2022-08-19T06:42:56;18.10;99.90
47606;DHT22;55448;51.330;4.946;2022-08-19T06:45:29;18.10;99.90
47606;DHT22;55448;51.330;4.946;2022-08-19T06:47:55;18.10;99.90
47606;DHT22;55448;51.330;4.946;2022-08-19T06:50:23;18.30;99.90
47606;DHT22;55448;51.330;4.946;2022-08-19T06:52:48;18.20;99.90
47606;DHT22;55448;51.330;4.946;2022-08-19T06:55:14;18.20;99.90
47606;DHT22;55448;51.330;4.946;2022-08-19T06:57:41;18.40;99.90
47606;DHT22;55448;51.330;4.946;2022-08-19T07:00:08;18.50;99.90
47606;DHT22;55448;51.330;4.946;2022-08-19T07:02:40;18.70;99.90
47606;DHT22;55448;51.330;4.946;2022-08-19T07:05:06;18.60;99.90
47606;DHT22;55448;51.330;4.946;2022-08-19T07:07:32;18.80;99.90
47606;DHT22;55448;51.330;4.946;2022-08-19T07:09:58;19.00;99.90
47606;DHT22;55448;51.330;4.946;2022-08-19T07:12:24;19.00;99.90
47606;DHT22;55448;51.330;4.946;2022-08-19T07:14:50;19.20;99.90
47606;DHT22;55448;51.330;4.946;2022-08-19T07:17:16;19.20;99.90
47606;DHT22;55448;51.330;4.946;2022-08-19T07:19:42;19.20;99.90
47606;DHT22;55448;51.330;4.946;2022-08-19T07:22:09;19.30;99.90
47606;DHT22;55448;51.330;4.946;2022-08-19T07:24:35;19.80;99.90
47606;DHT22;55448;51.330;4.946;2022-08-19T07:27:03;19.90;99.90
47606;DHT22;55448;51.330;4.946;2022-08-19T07:29:32;20.00;99.90
47606;DHT22;55448;51.330;4.946;2022-08-19T07:31:59;20.10;99.90
47606;DHT22;55448;51.330;4.946;2022-08-19T07:34:27;20.30;99.90
47606;DHT22;55448;51.330;4.946;2022-08-19T07:36:54;20.30;99.90
47606;DHT22;55448;51.330;4.946;2022-08-19T07:39:27;20.40;99.90
47606;DHT22;55448;51.330;4.946;2022-08-19T07:41:53;20.50;99.90
47606;DHT22;55448;51.330;4.946;2022-08-19T07:44:19;20.30;99.90
47606;DHT22;55448;51.330;4.946;2022-08-19T07:46:48;20.40;99.90
47606;DHT22;55448;51.330;4.946;2022-08-19T07:49:15;20.30;99.90
47606;DHT22;55448;51.330;4.946;2022-08-19T07:52:02;20.50;99.90
47606;DHT22;55448;51.330;4.946;2022-08-19T07:54:30;20.50;99.90
47606;DHT22;55448;51.330;4.946;2022-08-19T07:56:57;20.30;99.90
47606;DHT22;55448;51.330;4.946;2022-08-19T07:59:23;20.50;99.90
47606;DHT22;55448;51.330;4.946;2022-08-19T08:01:50;20.70;99.90
47606;DHT22;55448;51.330;4.946;2022-08-19T08:04:17;20.70;99.90
47606;DHT22;55448;51.330;4.946;2022-08-19T08:07:07;20.90;99.90
47606;DHT22;55448;51.330;4.946;2022-08-19T08:09:52;21.30;99.90
47606;DHT22;55448;51.330;4.946;2022-08-19T08:12:26;21.50;99.90
47606;DHT22;55448;51.330;4.946;2022-08-19T08:14:55;21.50;99.90
47606;DHT22;55448;51.330;4.946;2022-08-19T08:17:24;21.40;99.90
47606;DHT22;55448;51.330;4.946;2022-08-19T08:19:51;21.40;99.90
47606;DHT22;55448;51.330;4.946;2022-08-19T08:22:20;21.80;99.90
47606;DHT22;55448;51.330;4.946;2022-08-19T08:25:15;21.80;99.90
47606;DHT22;55448;51.330;4.946;2022-08-19T08:27:43;21.70;99.90
47606;DHT22;55448;51.330;4.946;2022-08-19T08:30:12;22.00;99.90
47606;DHT22;55448;51.330;4.946;2022-08-19T08:32:39;22.20;99.90
47606;DHT22;55448;51.330;4.946;2022-08-19T08:35:06;22.30;99.90
47606;DHT22;55448;51.330;4.946;2022-08-19T08:37:33;22.30;99.90
47606;DHT22;55448;51.330;4.946;2022-08-19T08:40:04;22.40;99.90
47606;DHT22;55448;51.330;4.946;2022-08-19T08:42:34;22.00;99.90
47606;DHT22;55448;51.330;4.946;2022-08-19T08:45:13;21.90;99.90
47606;DHT22;55448;51.330;4.946;2022-08-19T08:47:44;22.00;99.90
47606;DHT22;55448;51.330;4.946;2022-08-19T08:50:27;22.30;99.90
47606;DHT22;55448;51.330;4.946;2022-08-19T08:52:56;22.50;99.90
47606;DHT22;55448;51.330;4.946;2022-08-19T08:55:28;22.70;99.90
47606;DHT22;55448;51.330;4.946;2022-08-19T08:58:17;22.80;99.90
47606;DHT22;55448;51.330;4.946;2022-08-19T09:00:47;22.50;99.90
47606;DHT22;55448;51.330;4.946;2022-08-19T09:03:33;22.50;99.90
47606;DHT22;55448;51.330;4.946;2022-08-19T09:06:21;22.90;99.90
47606;DHT22;55448;51.330;4.946;2022-08-19T09:14:31;23.20;99.90
47606;DHT22;55448;51.330;4.946;2022-08-19T09:16:58;23.30;99.90
47606;DHT22;55448;51.330;4.946;2022-08-19T09:19:23;23.00;99.90
47606;DHT22;55448;51.330;4.946;2022-08-19T09:21:49;22.90;99.90
47606;DHT22;55448;51.330;4.946;2022-08-19T09:24:15;22.80;99.90
47606;DHT22;55448;51.330;4.946;2022-08-19T09:26:41;22.80;99.90
47606;DHT22;55448;51.330;4.946;2022-08-19T09:29:09;23.40;99.90
47606;DHT22;55448;51.330;4.946;2022-08-19T09:31:35;23.60;99.90
47606;DHT22;55448;51.330;4.946;2022-08-19T09:34:01;23.70;99.90
47606;DHT22;55448;51.330;4.946;2022-08-19T09:36:30;24.00;99.70
47606;DHT22;55448;51.330;4.946;2022-08-19T09:39:03;24.10;98.90
47606;DHT22;55448;51.330;4.946;2022-08-19T09:41:29;24.10;98.60
47606;DHT22;55448;51.330;4.946;2022-08-19T09:43:57;24.00;97.70
47606;DHT22;55448;51.330;4.946;2022-08-19T09:46:26;23.70;99.90
47606;DHT22;55448;51.330;4.946;2022-08-19T09:48:52;23.90;99.30
47606;DHT22;55448;51.330;4.946;2022-08-19T09:51:21;24.00;99.00
47606;DHT22;55448;51.330;4.946;2022-08-19T09:53:48;23.70;99.10
47606;DHT22;55448;51.330;4.946;2022-08-19T09:56:21;24.00;99.40
47606;DHT22;55448;51.330;4.946;2022-08-19T09:58:47;23.80;99.00
47606;DHT22;55448;51.330;4.946;2022-08-19T10:01:22;23.40;99.90
47606;DHT22;55448;51.330;4.946;2022-08-19T10:03:50;23.50;99.20
47606;DHT22;55448;51.330;4.946;2022-08-19T10:06:17;23.40;99.00
47606;DHT22;55448;51.330;4.946;2022-08-19T10:08:44;23.60;99.10
47606;DHT22;55448;51.330;4.946;2022-08-19T10:11:11;23.70;98.00
47606;DHT22;55448;51.330;4.946;2022-08-19T10:13:36;23.30;98.80
47606;DHT22;55448;51.330;4.946;2022-08-19T10:16:06;23.60;98.60
47606;DHT22;55448;51.330;4.946;2022-08-19T10:18:32;24.00;97.30
47606;DHT22;55448;51.330;4.946;2022-08-19T10:21:08;24.40;96.60
47606;DHT22;55448;51.330;4.946;2022-08-19T10:23:36;24.40;95.40
47606;DHT22;55448;51.330;4.946;2022-08-19T10:26:03;24.10;94.30
47606;DHT22;55448;51.330;4.946;2022-08-19T10:28:34;23.90;96.00
47606;DHT22;55448;51.330;4.946;2022-08-19T10:31:10;23.90;95.60
47606;DHT22;55448;51.330;4.946;2022-08-19T10:33:37;24.40;96.20
47606;DHT22;55448;51.330;4.946;2022-08-19T10:36:08;24.50;94.70
47606;DHT22;55448;51.330;4.946;2022-08-19T10:38:35;24.20;94.40
47606;DHT22;55448;51.330;4.946;2022-08-19T10:41:12;24.30;95.10
47606;DHT22;55448;51.330;4.946;2022-08-19T10:43:39;24.20;94.70
47606;DHT22;55448;51.330;4.946;2022-08-19T10:46:07;24.20;95.50
47606;DHT22;55448;51.330;4.946;2022-08-19T10:48:33;24.40;95.60
47606;DHT22;55448;51.330;4.946;2022-08-19T10:51:00;24.90;94.70
47606;DHT22;55448;51.330;4.946;2022-08-19T10:53:44;24.90;94.70
47606;DHT22;55448;51.330;4.946;2022-08-19T10:56:10;25.00;94.50
47606;DHT22;55448;51.330;4.946;2022-08-19T10:58:54;25.40;93.40
47606;DHT22;55448;51.330;4.946;2022-08-19T11:01:22;25.20;94.60
47606;DHT22;55448;51.330;4.946;2022-08-19T11:03:47;24.60;94.80
47606;DHT22;55448;51.330;4.946;2022-08-19T11:06:13;24.70;95.40
47606;DHT22;55448;51.330;4.946;2022-08-19T11:08:39;24.40;95.60
47606;DHT22;55448;51.330;4.946;2022-08-19T11:11:07;24.80;94.30
47606;DHT22;55448;51.330;4.946;2022-08-19T11:13:35;25.40;93.90
47606;DHT22;55448;51.330;4.946;2022-08-19T11:16:15;25.60;93.00
47606;DHT22;55448;51.330;4.946;2022-08-19T11:18:46;25.80;93.10
47606;DHT22;55448;51.330;4.946;2022-08-19T11:21:16;25.60;92.10
47606;DHT22;55448;51.330;4.946;2022-08-19T11:23:43;25.50;92.00
47606;DHT22;55448;51.330;4.946;2022-08-19T11:26:09;25.80;92.00
47606;DHT22;55448;51.330;4.946;2022-08-19T11:28:36;25.80;92.40
47606;DHT22;55448;51.330;4.946;2022-08-19T11:31:02;25.60;92.50
47606;DHT22;55448;51.330;4.946;2022-08-19T11:33:34;25.20;93.40
47606;DHT22;55448;51.330;4.946;2022-08-19T11:36:00;25.90;91.80
47606;DHT22;55448;51.330;4.946;2022-08-19T11:38:27;26.30;91.50
47606;DHT22;55448;51.330;4.946;2022-08-19T11:40:57;26.80;91.50
47606;DHT22;55448;51.330;4.946;2022-08-19T11:43:23;26.50;91.00
47606;DHT22;55448;51.330;4.946;2022-08-19T11:45:49;26.50;91.30
47606;DHT22;55448;51.330;4.946;2022-08-19T11:48:15;26.30;92.10
47606;DHT22;55448;51.330;4.946;2022-08-19T11:50:41;26.70;91.00
47606;DHT22;55448;51.330;4.946;2022-08-19T11:53:09;26.80;90.70
47606;DHT22;55448;51.330;4.946;2022-08-19T11:55:38;26.90;90.90
47606;DHT22;55448;51.330;4.946;2022-08-19T11:58:05;26.90;90.50
47606;DHT22;55448;51.330;4.946;2022-08-19T12:00:33;26.80;91.40
47606;DHT22;55448;51.330;4.946;2022-08-19T12:03:01;26.40;91.50
47606;DHT22;55448;51.330;4.946;2022-08-19T12:05:27;26.20;92.30
47606;DHT22;55448;51.330;4.946;2022-08-19T12:07:52;25.70;93.70
47606;DHT22;55448;51.330;4.946;2022-08-19T12:10:20;25.70;93.60
47606;DHT22;55448;51.330;4.946;2022-08-19T12:12:46;25.40;93.80
47606;DHT22;55448;51.330;4.946;2022-08-19T12:15:12;25.20;94.90
47606;DHT22;55448;51.330;4.946;2022-08-19T12:17:42;25.10;95.30
47606;DHT22;55448;51.330;4.946;2022-08-19T12:20:10;25.40;94.60
47606;DHT22;55448;51.330;4.946;2022-08-19T12:22:37;26.20;93.30
47606;DHT22;55448;51.330;4.946;2022-08-19T12:25:04;26.50;93.30
47606;DHT22;55448;51.330;4.946;2022-08-19T12:27:30;26.10;93.40
47606;DHT22;55448;51.330;4.946;2022-08-19T12:29:56;25.60;93.90
47606;DHT22;55448;51.330;4.946;2022-08-19T12:32:23;25.80;94.20
47606;DHT22;55448;51.330;4.946;2022-08-19T12:34:50;26.00;93.70
47606;DHT22;55448;51.330;4.946;2022-08-19T12:37:16;26.00;93.60
47606;DHT22;55448;51.330;4.946;2022-08-19T12:39:42;25.90;93.70
47606;DHT22;55448;51.330;4.946;2022-08-19T12:42:10;25.40;94.50
47606;DHT22;55448;51.330;4.946;2022-08-19T12:44:38;25.30;95.10
47606;DHT22;55448;51.330;4.946;2022-08-19T12:47:05;25.50;94.70
47606;DHT22;55448;51.330;4.946;2022-08-19T12:49:32;25.80;94.50
47606;DHT22;55448;51.330;4.946;2022-08-19T12:52:00;25.90;94.40
47606;DHT22;55448;51.330;4.946;2022-08-19T12:54:26;25.80;94.80
47606;DHT22;55448;51.330;4.946;2022-08-19T12:56:52;26.00;94.40
47606;DHT22;55448;51.330;4.946;2022-08-19T12:59:17;26.30;94.30
47606;DHT22;55448;51.330;4.946;2022-08-19T13:01:44;26.70;94.10
47606;DHT22;55448;51.330;4.946;2022-08-19T13:04:10;26.70;93.90
47606;DHT22;55448;51.330;4.946;2022-08-19T13:06:36;26.80;93.20
47606;DHT22;55448;51.330;4.946;2022-08-19T13:09:04;26.50;93.10
47606;DHT22;55448;51.330;4.946;2022-08-19T13:11:30;26.00;94.20
47606;DHT22;55448;51.330;4.946;2022-08-19T13:14:00;26.10;94.30
47606;DHT22;55448;51.330;4.946;2022-08-19T13:16:26;26.20;94.70
47606;DHT22;55448;51.330;4.946;2022-08-19T13:18:54;25.90;94.50
47606;DHT22;55448;51.330;4.946;2022-08-19T13:21:23;25.80;95.00
47606;DHT22;55448;51.330;4.946;2022-08-19T13:23:49;26.10;94.50
47606;DHT22;55448;51.330;4.946;2022-08-19T13:26:15;26.10;94.30
47606;DHT22;55448;51.330;4.946;2022-08-19T13:28:42;26.00;94.80
47606;DHT22;55448;51.330;4.946;2022-08-19T13:31:46;25.90;95.20
47606;DHT22;55448;51.330;4.946;2022-08-19T13:34:32;25.70;95.30
47606;DHT22;55448;51.330;4.946;2022-08-19T13:36:59;25.80;94.90
47606;DHT22;55448;51.330;4.946;2022-08-19T13:39:28;25.60;95.40
47606;DHT22;55448;51.330;4.946;2022-08-19T13:41:55;25.60;96.00
47606;DHT22;55448;51.330;4.946;2022-08-19T13:44:20;25.50;96.40
47606;DHT22;55448;51.330;4.946;2022-08-19T13:46:47;25.70;96.00
47606;DHT22;55448;51.330;4.946;2022-08-19T13:49:14;25.60;96.00
47606;DHT22;55448;51.330;4.946;2022-08-19T13:51:42;25.60;96.40
47606;DHT22;55448;51.330;4.946;2022-08-19T13:54:09;25.40;96.70
47606;DHT22;55448;51.330;4.946;2022-08-19T13:56:42;25.40;96.90
47606;DHT22;55448;51.330;4.946;2022-08-19T13:59:08;25.00;97.60
47606;DHT22;55448;51.330;4.946;2022-08-19T14:01:34;24.80;98.10
47606;DHT22;55448;51.330;4.946;2022-08-19T14:04:00;24.90;97.90
47606;DHT22;55448;51.330;4.946;2022-08-19T14:06:26;24.60;98.50
47606;DHT22;55448;51.330;4.946;2022-08-19T14:08:52;24.70;98.60
47606;DHT22;55448;51.330;4.946;2022-08-19T14:11:18;25.20;97.90
47606;DHT22;55448;51.330;4.946;2022-08-19T14:13:44;25.10;97.50
47606;DHT22;55448;51.330;4.946;2022-08-19T14:16:12;25.10;98.20
47606;DHT22;55448;51.330;4.946;2022-08-19T14:18:38;25.30;97.70
47606;DHT22;55448;51.330;4.946;2022-08-19T14:21:05;25.50;97.10
47606;DHT22;55448;51.330;4.946;2022-08-19T14:23:32;25.50;97.00
47606;DHT22;55448;51.330;4.946;2022-08-19T14:26:07;25.20;97.50
47606;DHT22;55448;51.330;4.946;2022-08-19T14:28:33;25.00;98.00
47606;DHT22;55448;51.330;4.946;2022-08-19T14:30:58;25.00;98.00
47606;DHT22;55448;51.330;4.946;2022-08-19T14:33:24;25.30;97.60
47606;DHT22;55448;51.330;4.946;2022-08-19T14:35:50;25.30;97.50
47606;DHT22;55448;51.330;4.946;2022-08-19T14:38:17;25.60;97.80
47606;DHT22;55448;51.330;4.946;2022-08-19T14:40:44;26.30;96.10
47606;DHT22;55448;51.330;4.946;2022-08-19T14:43:10;26.40;95.60
47606;DHT22;55448;51.330;4.946;2022-08-19T14:45:38;26.60;95.70
47606;DHT22;55448;51.330;4.946;2022-08-19T14:48:05;26.70;95.40
47606;DHT22;55448;51.330;4.946;2022-08-19T14:50:31;27.30;94.90
47606;DHT22;55448;51.330;4.946;2022-08-19T14:53:00;27.50;94.20
47606;DHT22;55448;51.330;4.946;2022-08-19T14:55:26;28.20;92.50
47606;DHT22;55448;51.330;4.946;2022-08-19T14:57:52;28.40;91.60
47606;DHT22;55448;51.330;4.946;2022-08-19T15:00:18;28.10;92.40
47606;DHT22;55448;51.330;4.946;2022-08-19T15:02:44;27.50;92.20
47606;DHT22;55448;51.330;4.946;2022-08-19T15:05:10;27.10;93.30
47606;DHT22;55448;51.330;4.946;2022-08-19T15:07:37;26.90;93.80
47606;DHT22;55448;51.330;4.946;2022-08-19T15:10:05;26.20;94.30
47606;DHT22;55448;51.330;4.946;2022-08-19T15:12:33;26.00;95.10
47606;DHT22;55448;51.330;4.946;2022-08-19T15:14:59;26.10;95.10
47606;DHT22;55448;51.330;4.946;2022-08-19T15:17:25;26.00;95.50
47606;DHT22;55448;51.330;4.946;2022-08-19T15:19:51;25.70;95.30
47606;DHT22;55448;51.330;4.946;2022-08-19T15:22:17;25.40;95.60
47606;DHT22;55448;51.330;4.946;2022-08-19T15:24:44;25.30;96.20
47606;DHT22;55448;51.330;4.946;2022-08-19T15:27:12;25.70;95.80
47606;DHT22;55448;51.330;4.946;2022-08-19T15:29:38;25.70;95.80
47606;DHT22;55448;51.330;4.946;2022-08-19T15:32:05;25.40;95.90
47606;DHT22;55448;51.330;4.946;2022-08-19T15:34:32;25.40;96.40
47606;DHT22;55448;51.330;4.946;2022-08-19T15:36:58;25.50;96.50
47606;DHT22;55448;51.330;4.946;2022-08-19T15:39:24;25.70;96.20
47606;DHT22;55448;51.330;4.946;2022-08-19T15:41:51;25.90;95.70